sensor_id;sensor_type;location;lat;lon;timestamp;pressure;altitude;pressure_sealevel;temperature;humidity
28683;BME280;15862;43.062;25.626;2022-11-21T00:01:10;99005.56;;;11.51;100.00
28683;BME280;15862;43.062;25.626;2022-11-21T00:03:36;98995.75;;;11.55;100.00
28683;BME280;15862;43.062;25.626;2022-11-21T00:06:02;98988.94;;;11.44;100.00
28683;BME280;15862;43.062;25.626;2022-11-21T00:08:29;98991.78;;;11.60;100.00
28683;BME280;15862;43.062;25.626;2022-11-21T00:10:57;98970.25;;;11.60;100.00
28683;BME280;15862;43.062;25.626;2022-11-21T00:13:23;98969.56;;;11.67;100.00
28683;BME280;15862;43.062;25.626;2022-11-21T00:15:48;98972.78;;;11.79;100.00
28683;BME280;15862;43.062;25.626;2022-11-21T00:18:14;98967.97;;;11.84;100.00
28683;BME280;15862;43.062;25.626;2022-11-21T00:20:40;98972.84;;;11.96;100.00
28683;BME280;15862;43.062;25.626;2022-11-21T00:23:06;98969.94;;;11.99;100.00
28683;BME280;15862;43.062;25.626;2022-11-21T00:25:32;98978.09;;;12.04;100.00
28683;BME280;15862;43.062;25.626;2022-11-21T00:27:57;98970.13;;;12.15;100.00
28683;BME280;15862;43.062;25.626;2022-11-21T00:30:23;98969.00;;;12.18;100.00
28683;BME280;15862;43.062;25.626;2022-11-21T00:32:48;98967.44;;;12.07;100.00
28683;BME280;15862;43.062;25.626;2022-11-21T00:35:14;98969.41;;;12.22;100.00
28683;BME280;15862;43.062;25.626;2022-11-21T00:37:39;98967.34;;;12.26;100.00
28683;BME280;15862;43.062;25.626;2022-11-21T00:40:05;98955.63;;;12.22;100.00
28683;BME280;15862;43.062;25.626;2022-11-21T00:42:31;98959.94;;;12.31;100.00
28683;BME280;15862;43.062;25.626;2022-11-21T00:44:57;98941.91;;;12.39;100.00
28683;BME280;15862;43.062;25.626;2022-11-21T00:47:22;98953.66;;;12.51;100.00
28683;BME280;15862;43.062;25.626;2022-11-21T00:49:47;98954.56;;;12.59;100.00
28683;BME280;15862;43.062;25.626;2022-11-21T00:52:13;98956.72;;;12.64;100.00
28683;BME280;15862;43.062;25.626;2022-11-21T00:54:38;98951.88;;;12.69;100.00
28683;BME280;15862;43.062;25.626;2022-11-21T00:57:04;98944.13;;;12.69;100.00
28683;BME280;15862;43.062;25.626;2022-11-21T00:59:29;98934.34;;;12.63;100.00
28683;BME280;15862;43.062;25.626;2022-11-21T01:01:55;98937.09;;;12.79;100.00
28683;BME280;15862;43.062;25.626;2022-11-21T01:04:20;98935.28;;;12.79;100.00
28683;BME280;15862;43.062;25.626;2022-11-21T01:06:45;98930.78;;;12.81;100.00
28683;BME280;15862;43.062;25.626;2022-11-21T01:09:11;98915.22;;;12.81;100.00
28683;BME280;15862;43.062;25.626;2022-11-21T01:11:36;98899.63;;;12.73;100.00
28683;BME280;15862;43.062;25.626;2022-11-21T01:14:02;98887.41;;;12.66;100.00
28683;BME280;15862;43.062;25.626;2022-11-21T01:16:28;98857.94;;;12.67;100.00
28683;BME280;15862;43.062;25.626;2022-11-21T01:18:54;98869.94;;;12.68;100.00
28683;BME280;15862;43.062;25.626;2022-11-21T01:21:26;98871.28;;;12.72;100.00
28683;BME280;15862;43.062;25.626;2022-11-21T01:23:52;98849.19;;;12.68;100.00
28683;BME280;15862;43.062;25.626;2022-11-21T01:26:28;98857.66;;;12.70;100.00
28683;BME280;15862;43.062;25.626;2022-11-21T01:28:54;98846.78;;;12.66;100.00
28683;BME280;15862;43.062;25.626;2022-11-21T01:31:22;98842.84;;;12.62;100.00
28683;BME280;15862;43.062;25.626;2022-11-21T01:33:48;98848.19;;;12.61;100.00
28683;BME280;15862;43.062;25.626;2022-11-21T01:36:17;98821.97;;;12.64;100.00
28683;BME280;15862;43.062;25.626;2022-11-21T01:38:45;98821.31;;;12.62;100.00
28683;BME280;15862;43.062;25.626;2022-11-21T01:41:12;98826.16;;;12.57;100.00
28683;BME280;15862;43.062;25.626;2022-11-21T01:43:38;98831.91;;;12.51;100.00
28683;BME280;15862;43.062;25.626;2022-11-21T01:46:10;98816.69;;;12.48;100.00
28683;BME280;15862;43.062;25.626;2022-11-21T01:49:06;98796.25;;;12.45;100.00
28683;BME280;15862;43.062;25.626;2022-11-21T01:59:26;98743.81;;;13.74;100.00
28683;BME280;15862;43.062;25.626;2022-11-21T02:01:54;98750.84;;;14.30;100.00
28683;BME280;15862;43.062;25.626;2022-11-21T02:04:21;98713.13;;;14.50;100.00
28683;BME280;15862;43.062;25.626;2022-11-21T02:06:48;98711.88;;;14.84;100.00
28683;BME280;15862;43.062;25.626;2022-11-21T02:09:14;98671.38;;;15.20;100.00
28683;BME280;15862;43.062;25.626;2022-11-21T02:12:01;98641.16;;;15.41;100.00
28683;BME280;15862;43.062;25.626;2022-11-21T02:14:29;98621.19;;;15.41;100.00
28683;BME280;15862;43.062;25.626;2022-11-21T02:16:57;98625.16;;;15.52;100.00
28683;BME280;15862;43.062;25.626;2022-11-21T02:19:33;98618.91;;;15.61;100.00
28683;BME280;15862;43.062;25.626;2022-11-21T02:22:06;98642.13;;;15.85;100.00
28683;BME280;15862;43.062;25.626;2022-11-21T02:24:54;98647.81;;;16.03;100.00
28683;BME280;15862;43.062;25.626;2022-11-21T02:27:20;98614.50;;;16.27;100.00
28683;BME280;15862;43.062;25.626;2022-11-21T02:29:46;98625.53;;;16.14;100.00
28683;BME280;15862;43.062;25.626;2022-11-21T02:32:23;98625.88;;;15.83;100.00
28683;BME280;15862;43.062;25.626;2022-11-21T02:34:49;98622.59;;;15.66;100.00
28683;BME280;15862;43.062;25.626;2022-11-21T02:37:15;98623.34;;;15.52;100.00
28683;BME280;15862;43.062;25.626;2022-11-21T02:39:42;98625.34;;;15.50;100.00
28683;BME280;15862;43.062;25.626;2022-11-21T02:42:15;98620.34;;;15.41;100.00
28683;BME280;15862;43.062;25.626;2022-11-21T02:44:54;98616.91;;;15.26;100.00
28683;BME280;15862;43.062;25.626;2022-11-21T02:47:22;98626.22;;;15.13;100.00
28683;BME280;15862;43.062;25.626;2022-11-21T02:52:35;98665.97;;;14.99;100.00
28683;BME280;15862;43.062;25.626;2022-11-21T02:55:00;98672.66;;;14.93;100.00
28683;BME280;15862;43.062;25.626;2022-11-21T02:57:26;98644.69;;;14.95;100.00
28683;BME280;15862;43.062;25.626;2022-11-21T02:59:51;98622.53;;;14.77;100.00
28683;BME280;15862;43.062;25.626;2022-11-21T03:02:17;98629.53;;;14.68;100.00
28683;BME280;15862;43.062;25.626;2022-11-21T03:04:42;98632.72;;;14.56;100.00
28683;BME280;15862;43.062;25.626;2022-11-21T03:07:07;98634.38;;;14.41;100.00
28683;BME280;15862;43.062;25.626;2022-11-21T03:09:33;98631.34;;;14.30;100.00
28683;BME280;15862;43.062;25.626;2022-11-21T03:11:58;98615.94;;;14.20;100.00
28683;BME280;15862;43.062;25.626;2022-11-21T03:14:24;98608.63;;;14.08;100.00
28683;BME280;15862;43.062;25.626;2022-11-21T03:16:49;98616.25;;;14.01;100.00
28683;BME280;15862;43.062;25.626;2022-11-21T03:19:14;98637.06;;;13.85;100.00
28683;BME280;15862;43.062;25.626;2022-11-21T03:21:40;98653.16;;;13.73;100.00
28683;BME280;15862;43.062;25.626;2022-11-21T03:24:06;98674.53;;;13.67;100.00
28683;BME280;15862;43.062;25.626;2022-11-21T03:26:31;98695.28;;;13.67;100.00
28683;BME280;15862;43.062;25.626;2022-11-21T03:28:57;98688.00;;;13.63;100.00
28683;BME280;15862;43.062;25.626;2022-11-21T03:31:22;98698.72;;;13.60;100.00
28683;BME280;15862;43.062;25.626;2022-11-21T03:33:48;98707.78;;;13.64;100.00
28683;BME280;15862;43.062;25.626;2022-11-21T03:36:13;98709.25;;;13.74;100.00
28683;BME280;15862;43.062;25.626;2022-11-21T03:38:38;98704.56;;;13.77;100.00
28683;BME280;15862;43.062;25.626;2022-11-21T03:41:05;98689.47;;;13.89;100.00
28683;BME280;15862;43.062;25.626;2022-11-21T03:43:51;98688.50;;;13.82;100.00
28683;BME280;15862;43.062;25.626;2022-11-21T03:46:16;98683.28;;;13.74;100.00
28683;BME280;15862;43.062;25.626;2022-11-21T03:48:42;98680.38;;;13.61;100.00
28683;BME280;15862;43.062;25.626;2022-11-21T03:51:07;98677.47;;;13.48;100.00
28683;BME280;15862;43.062;25.626;2022-11-21T03:53:32;98663.00;;;13.30;100.00
28683;BME280;15862;43.062;25.626;2022-11-21T03:55:58;98677.56;;;13.15;100.00
28683;BME280;15862;43.062;25.626;2022-11-21T03:58:23;98691.97;;;13.09;100.00
28683;BME280;15862;43.062;25.626;2022-11-21T04:00:48;98694.69;;;13.00;100.00
28683;BME280;15862;43.062;25.626;2022-11-21T04:03:14;98688.22;;;12.96;100.00
28683;BME280;15862;43.062;25.626;2022-11-21T04:05:39;98684.09;;;12.86;100.00
28683;BME280;15862;43.062;25.626;2022-11-21T04:08:05;98694.94;;;12.81;100.00
28683;BME280;15862;43.062;25.626;2022-11-21T04:10:30;98686.28;;;12.73;100.00
28683;BME280;15862;43.062;25.626;2022-11-21T04:12:55;98668.44;;;12.62;100.00
28683;BME280;15862;43.062;25.626;2022-11-21T04:15:21;98677.97;;;12.61;100.00
28683;BME280;15862;43.062;25.626;2022-11-21T04:17:46;98680.34;;;12.47;100.00
28683;BME280;15862;43.062;25.626;2022-11-21T04:20:12;98668.16;;;12.39;100.00
28683;BME280;15862;43.062;25.626;2022-11-21T04:22:37;98679.00;;;12.35;100.00
28683;BME280;15862;43.062;25.626;2022-11-21T04:25:02;98655.38;;;12.13;100.00
28683;BME280;15862;43.062;25.626;2022-11-21T04:27:28;98669.69;;;11.99;100.00
28683;BME280;15862;43.062;25.626;2022-11-21T04:29:53;98661.63;;;12.02;100.00
28683;BME280;15862;43.062;25.626;2022-11-21T04:32:19;98677.63;;;11.98;100.00
28683;BME280;15862;43.062;25.626;2022-11-21T04:34:44;98661.16;;;11.81;100.00
28683;BME280;15862;43.062;25.626;2022-11-21T04:37:10;98654.56;;;11.61;100.00
28683;BME280;15862;43.062;25.626;2022-11-21T04:39:35;98649.44;;;11.52;100.00
28683;BME280;15862;43.062;25.626;2022-11-21T04:42:01;98658.69;;;11.54;100.00
28683;BME280;15862;43.062;25.626;2022-11-21T04:44:26;98662.44;;;11.60;100.00
28683;BME280;15862;43.062;25.626;2022-11-21T04:46:52;98673.44;;;11.44;100.00
28683;BME280;15862;43.062;25.626;2022-11-21T04:49:18;98680.25;;;11.28;100.00
28683;BME280;15862;43.062;25.626;2022-11-21T04:51:43;98656.97;;;11.11;100.00
28683;BME280;15862;43.062;25.626;2022-11-21T04:54:09;98655.09;;;11.03;100.00
28683;BME280;15862;43.062;25.626;2022-11-21T04:56:35;98678.19;;;11.05;100.00
28683;BME280;15862;43.062;25.626;2022-11-21T04:59:00;98681.88;;;11.02;100.00
28683;BME280;15862;43.062;25.626;2022-11-21T05:01:26;98692.38;;;11.01;100.00
28683;BME280;15862;43.062;25.626;2022-11-21T05:03:51;98683.59;;;10.94;100.00
28683;BME280;15862;43.062;25.626;2022-11-21T05:06:17;98681.50;;;10.80;100.00
28683;BME280;15862;43.062;25.626;2022-11-21T05:08:42;98688.75;;;10.94;100.00
28683;BME280;15862;43.062;25.626;2022-11-21T05:11:07;98694.94;;;10.83;100.00
28683;BME280;15862;43.062;25.626;2022-11-21T05:13:53;98685.19;;;10.77;100.00
28683;BME280;15862;43.062;25.626;2022-11-21T05:16:19;98691.75;;;10.89;100.00
28683;BME280;15862;43.062;25.626;2022-11-21T05:18:44;98677.38;;;10.87;100.00
28683;BME280;15862;43.062;25.626;2022-11-21T05:21:09;98666.47;;;10.93;100.00
28683;BME280;15862;43.062;25.626;2022-11-21T05:23:35;98670.63;;;10.76;100.00
28683;BME280;15862;43.062;25.626;2022-11-21T05:26:00;98661.75;;;10.62;100.00
28683;BME280;15862;43.062;25.626;2022-11-21T05:28:26;98659.31;;;10.60;100.00
28683;BME280;15862;43.062;25.626;2022-11-21T05:30:51;98662.25;;;10.65;100.00
28683;BME280;15862;43.062;25.626;2022-11-21T05:33:17;98670.19;;;10.81;100.00
28683;BME280;15862;43.062;25.626;2022-11-21T05:35:42;98678.75;;;10.81;100.00
28683;BME280;15862;43.062;25.626;2022-11-21T05:38:08;98659.63;;;10.74;100.00
28683;BME280;15862;43.062;25.626;2022-11-21T05:40:33;98662.97;;;10.84;100.00
28683;BME280;15862;43.062;25.626;2022-11-21T05:42:59;98642.06;;;10.78;100.00
28683;BME280;15862;43.062;25.626;2022-11-21T05:45:43;98665.31;;;10.78;100.00
28683;BME280;15862;43.062;25.626;2022-11-21T05:48:08;98662.97;;;10.84;100.00
28683;BME280;15862;43.062;25.626;2022-11-21T05:50:37;98685.50;;;10.92;100.00
28683;BME280;15862;43.062;25.626;2022-11-21T05:53:05;98676.25;;;10.89;100.00
28683;BME280;15862;43.062;25.626;2022-11-21T05:55:33;98681.19;;;10.83;100.00
28683;BME280;15862;43.062;25.626;2022-11-21T05:57:58;98681.19;;;10.83;100.00
28683;BME280;15862;43.062;25.626;2022-11-21T06:00:24;98670.19;;;10.81;100.00
28683;BME280;15862;43.062;25.626;2022-11-21T06:02:50;98689.34;;;10.88;100.00
28683;BME280;15862;43.062;25.626;2022-11-21T06:05:34;98700.41;;;10.98;100.00
28683;BME280;15862;43.062;25.626;2022-11-21T06:07:59;98704.13;;;11.13;100.00
28683;BME280;15862;43.062;25.626;2022-11-21T06:10:24;98716.56;;;11.27;100.00
28683;BME280;15862;43.062;25.626;2022-11-21T06:12:50;98723.19;;;11.91;100.00
28683;BME280;15862;43.062;25.626;2022-11-21T06:15:15;98741.06;;;12.78;100.00
28683;BME280;15862;43.062;25.626;2022-11-21T06:17:41;98739.38;;;13.35;100.00
28683;BME280;15862;43.062;25.626;2022-11-21T06:20:07;98743.00;;;13.58;100.00
28683;BME280;15862;43.062;25.626;2022-11-21T06:22:32;98737.16;;;14.04;100.00
28683;BME280;15862;43.062;25.626;2022-11-21T06:24:58;98691.94;;;14.68;100.00
28683;BME280;15862;43.062;25.626;2022-11-21T06:27:23;98649.28;;;15.46;100.00
28683;BME280;15862;43.062;25.626;2022-11-21T06:29:49;98633.22;;;16.74;100.00
28683;BME280;15862;43.062;25.626;2022-11-21T06:32:14;98602.09;;;17.70;100.00
28683;BME280;15862;43.062;25.626;2022-11-21T06:34:40;98583.88;;;18.84;100.00
28683;BME280;15862;43.062;25.626;2022-11-21T06:37:05;98587.25;;;20.02;100.00
28683;BME280;15862;43.062;25.626;2022-11-21T06:39:31;98575.16;;;21.39;94.73
28683;BME280;15862;43.062;25.626;2022-11-21T06:41:56;98579.66;;;22.47;82.99
28683;BME280;15862;43.062;25.626;2022-11-21T06:44:23;98586.78;;;23.53;72.01
28683;BME280;15862;43.062;25.626;2022-11-21T06:46:48;98586.47;;;24.41;62.61
28683;BME280;15862;43.062;25.626;2022-11-21T06:49:14;98593.09;;;25.05;59.45
28683;BME280;15862;43.062;25.626;2022-11-21T06:51:39;98594.84;;;25.88;55.31
28683;BME280;15862;43.062;25.626;2022-11-21T06:54:04;98590.34;;;26.81;50.37
28683;BME280;15862;43.062;25.626;2022-11-21T06:56:30;98589.75;;;28.15;47.48
28683;BME280;15862;43.062;25.626;2022-11-21T06:58:57;98595.28;;;28.50;44.81
28683;BME280;15862;43.062;25.626;2022-11-21T07:01:23;98599.09;;;29.45;42.87
28683;BME280;15862;43.062;25.626;2022-11-21T07:03:48;98602.31;;;29.77;42.80
28683;BME280;15862;43.062;25.626;2022-11-21T07:06:14;98605.94;;;30.65;40.17
28683;BME280;15862;43.062;25.626;2022-11-21T07:08:39;98600.00;;;31.31;39.19
28683;BME280;15862;43.062;25.626;2022-11-21T07:11:12;98596.44;;;31.46;38.13
28683;BME280;15862;43.062;25.626;2022-11-21T07:13:38;98599.25;;;31.97;37.62
28683;BME280;15862;43.062;25.626;2022-11-21T07:16:06;98599.63;;;32.19;36.26
28683;BME280;15862;43.062;25.626;2022-11-21T07:18:32;98604.88;;;32.76;36.02
28683;BME280;15862;43.062;25.626;2022-11-21T07:20:59;98602.31;;;32.66;35.16
28683;BME280;15862;43.062;25.626;2022-11-21T07:23:25;98605.41;;;31.98;36.13
28683;BME280;15862;43.062;25.626;2022-11-21T07:25:51;98630.91;;;30.89;37.19
28683;BME280;15862;43.062;25.626;2022-11-21T07:28:16;98624.69;;;29.56;37.64
28683;BME280;15862;43.062;25.626;2022-11-21T07:30:42;98637.91;;;29.21;38.63
28683;BME280;15862;43.062;25.626;2022-11-21T07:33:07;98648.72;;;29.00;40.21
28683;BME280;15862;43.062;25.626;2022-11-21T07:35:34;98652.53;;;28.63;39.55
28683;BME280;15862;43.062;25.626;2022-11-21T07:38:00;98675.31;;;27.60;41.04
28683;BME280;15862;43.062;25.626;2022-11-21T07:40:25;98681.28;;;25.94;45.00
28683;BME280;15862;43.062;25.626;2022-11-21T07:42:51;98691.50;;;23.93;49.70
28683;BME280;15862;43.062;25.626;2022-11-21T07:45:17;98710.91;;;21.27;65.86
28683;BME280;15862;43.062;25.626;2022-11-21T07:47:43;98725.63;;;19.94;81.53
28683;BME280;15862;43.062;25.626;2022-11-21T07:50:09;98721.81;;;19.30;85.60
28683;BME280;15862;43.062;25.626;2022-11-21T07:52:35;98708.63;;;18.16;94.65
28683;BME280;15862;43.062;25.626;2022-11-21T07:55:01;98745.25;;;17.25;100.00
28683;BME280;15862;43.062;25.626;2022-11-21T07:57:28;98730.97;;;16.34;100.00
28683;BME280;15862;43.062;25.626;2022-11-21T07:59:53;98752.75;;;15.97;100.00
28683;BME280;15862;43.062;25.626;2022-11-21T08:02:25;98764.06;;;15.81;100.00
28683;BME280;15862;43.062;25.626;2022-11-21T08:04:52;98763.97;;;15.06;100.00
28683;BME280;15862;43.062;25.626;2022-11-21T08:07:19;98770.53;;;14.86;100.00
28683;BME280;15862;43.062;25.626;2022-11-21T08:09:44;98773.16;;;14.86;100.00
28683;BME280;15862;43.062;25.626;2022-11-21T08:12:11;98776.56;;;14.79;100.00
28683;BME280;15862;43.062;25.626;2022-11-21T08:14:37;98761.00;;;14.71;100.00
28683;BME280;15862;43.062;25.626;2022-11-21T08:17:03;98780.91;;;15.02;100.00
28683;BME280;15862;43.062;25.626;2022-11-21T08:19:29;98789.78;;;15.24;100.00
28683;BME280;15862;43.062;25.626;2022-11-21T08:21:54;98797.66;;;15.00;100.00
28683;BME280;15862;43.062;25.626;2022-11-21T08:24:20;98798.44;;;15.08;100.00
28683;BME280;15862;43.062;25.626;2022-11-21T08:26:46;98793.25;;;15.00;100.00
28683;BME280;15862;43.062;25.626;2022-11-21T08:29:12;98809.50;;;15.10;100.00
28683;BME280;15862;43.062;25.626;2022-11-21T08:31:40;98813.09;;;15.47;100.00
28683;BME280;15862;43.062;25.626;2022-11-21T08:34:06;98804.38;;;15.63;100.00
28683;BME280;15862;43.062;25.626;2022-11-21T08:36:31;98834.09;;;15.76;100.00
28683;BME280;15862;43.062;25.626;2022-11-21T08:38:57;98814.69;;;15.26;100.00
28683;BME280;15862;43.062;25.626;2022-11-21T08:41:22;98834.22;;;14.98;100.00
28683;BME280;15862;43.062;25.626;2022-11-21T08:44:07;98822.94;;;14.67;100.00
28683;BME280;15862;43.062;25.626;2022-11-21T08:46:34;98837.88;;;14.57;100.00
28683;BME280;15862;43.062;25.626;2022-11-21T08:49:05;98829.28;;;14.33;100.00
28683;BME280;15862;43.062;25.626;2022-11-21T08:51:31;98853.78;;;14.47;100.00
28683;BME280;15862;43.062;25.626;2022-11-21T08:53:57;98857.84;;;14.41;100.00
28683;BME280;15862;43.062;25.626;2022-11-21T08:56:24;98862.84;;;14.19;100.00
28683;BME280;15862;43.062;25.626;2022-11-21T08:58:49;98854.59;;;14.23;100.00
28683;BME280;15862;43.062;25.626;2022-11-21T09:01:15;98868.06;;;14.19;100.00
28683;BME280;15862;43.062;25.626;2022-11-21T09:03:40;98866.94;;;14.29;100.00
28683;BME280;15862;43.062;25.626;2022-11-21T09:06:06;98873.47;;;14.49;100.00
28683;BME280;15862;43.062;25.626;2022-11-21T09:08:31;98849.88;;;14.35;100.00
28683;BME280;15862;43.062;25.626;2022-11-21T09:10:57;98857.88;;;14.49;100.00
28683;BME280;15862;43.062;25.626;2022-11-21T09:13:22;98868.75;;;14.52;100.00
28683;BME280;15862;43.062;25.626;2022-11-21T09:15:48;98869.53;;;14.37;100.00
28683;BME280;15862;43.062;25.626;2022-11-21T09:18:32;98868.56;;;14.30;100.00
28683;BME280;15862;43.062;25.626;2022-11-21T09:20:57;98890.31;;;14.13;100.00
28683;BME280;15862;43.062;25.626;2022-11-21T09:23:23;98896.91;;;14.00;100.00
28683;BME280;15862;43.062;25.626;2022-11-21T09:25:48;98899.88;;;14.13;100.00
28683;BME280;15862;43.062;25.626;2022-11-21T09:28:14;98883.75;;;14.09;100.00
28683;BME280;15862;43.062;25.626;2022-11-21T09:30:41;98896.91;;;14.08;100.00
28683;BME280;15862;43.062;25.626;2022-11-21T09:33:09;98914.16;;;14.25;100.00
28683;BME280;15862;43.062;25.626;2022-11-21T09:35:36;98917.28;;;14.20;100.00
28683;BME280;15862;43.062;25.626;2022-11-21T09:38:02;98905.69;;;14.07;100.00
28683;BME280;15862;43.062;25.626;2022-11-21T09:40:29;98908.38;;;14.31;100.00
28683;BME280;15862;43.062;25.626;2022-11-21T09:43:17;98916.31;;;14.45;100.00
28683;BME280;15862;43.062;25.626;2022-11-21T09:45:51;98921.97;;;14.33;100.00
28683;BME280;15862;43.062;25.626;2022-11-21T09:48:46;98920.19;;;14.25;100.00
28683;BME280;15862;43.062;25.626;2022-11-21T09:51:14;98925.47;;;14.08;100.00
28683;BME280;15862;43.062;25.626;2022-11-21T09:54:00;98926.41;;;13.91;100.00
28683;BME280;15862;43.062;25.626;2022-11-21T09:56:30;98929.13;;;13.81;100.00
28683;BME280;15862;43.062;25.626;2022-11-21T10:01:30;98942.03;;;13.66;100.00
28683;BME280;15862;43.062;25.626;2022-11-21T10:03:56;98963.53;;;13.50;100.00
28683;BME280;15862;43.062;25.626;2022-11-21T10:06:24;98951.47;;;13.41;100.00
28683;BME280;15862;43.062;25.626;2022-11-21T10:09:15;98979.19;;;13.41;100.00
28683;BME280;15862;43.062;25.626;2022-11-21T10:11:56;98981.94;;;13.14;100.00
28683;BME280;15862;43.062;25.626;2022-11-21T10:15:29;98973.28;;;13.05;100.00
28683;BME280;15862;43.062;25.626;2022-11-21T10:20:51;98961.56;;;13.01;100.00
28683;BME280;15862;43.062;25.626;2022-11-21T10:29:14;98959.94;;;13.43;100.00
28683;BME280;15862;43.062;25.626;2022-11-21T10:31:42;98960.28;;;13.48;100.00
28683;BME280;15862;43.062;25.626;2022-11-21T10:34:24;98955.69;;;13.68;100.00
28683;BME280;15862;43.062;25.626;2022-11-21T10:39:55;98952.28;;;13.75;100.00
28683;BME280;15862;43.062;25.626;2022-11-21T10:42:31;98959.13;;;13.76;100.00
28683;BME280;15862;43.062;25.626;2022-11-21T10:45:00;98966.56;;;13.71;100.00
28683;BME280;15862;43.062;25.626;2022-11-21T10:47:42;98965.75;;;13.45;100.00
28683;BME280;15862;43.062;25.626;2022-11-21T10:55:59;98981.38;;;13.53;100.00
28683;BME280;15862;43.062;25.626;2022-11-21T11:01:04;98993.78;;;13.67;100.00
28683;BME280;15862;43.062;25.626;2022-11-21T11:03:30;98996.72;;;13.39;100.00
28683;BME280;15862;43.062;25.626;2022-11-21T11:05:56;99000.09;;;13.39;100.00
28683;BME280;15862;43.062;25.626;2022-11-21T11:08:23;98988.19;;;13.54;100.00
28683;BME280;15862;43.062;25.626;2022-11-21T11:11:06;98997.22;;;13.42;100.00
28683;BME280;15862;43.062;25.626;2022-11-21T11:13:54;98999.94;;;13.15;100.00
28683;BME280;15862;43.062;25.626;2022-11-21T11:16:21;98995.91;;;13.21;100.00
28683;BME280;15862;43.062;25.626;2022-11-21T11:19:15;98972.09;;;13.00;100.00
28683;BME280;15862;43.062;25.626;2022-11-21T11:21:45;98989.25;;;13.18;100.00
28683;BME280;15862;43.062;25.626;2022-11-21T11:26:49;99012.28;;;13.39;100.00
28683;BME280;15862;43.062;25.626;2022-11-21T11:34:38;99005.06;;;12.90;100.00
28683;BME280;15862;43.062;25.626;2022-11-21T11:40:06;98997.84;;;12.84;100.00
28683;BME280;15862;43.062;25.626;2022-11-21T11:48:28;98993.59;;;12.93;100.00
28683;BME280;15862;43.062;25.626;2022-11-21T11:51:03;99000.47;;;13.01;100.00
28683;BME280;15862;43.062;25.626;2022-11-21T11:53:37;99000.03;;;12.89;100.00
28683;BME280;15862;43.062;25.626;2022-11-21T11:56:26;98991.19;;;12.82;100.00
28683;BME280;15862;43.062;25.626;2022-11-21T11:59:04;98976.59;;;12.81;100.00
28683;BME280;15862;43.062;25.626;2022-11-21T12:01:39;98973.22;;;12.98;100.00
28683;BME280;15862;43.062;25.626;2022-11-21T12:04:17;98998.19;;;13.41;100.00
28683;BME280;15862;43.062;25.626;2022-11-21T12:12:04;98994.47;;;14.52;100.00
28683;BME280;15862;43.062;25.626;2022-11-21T12:15:14;99001.31;;;14.52;100.00
28683;BME280;15862;43.062;25.626;2022-11-21T12:23:46;99018.47;;;14.38;100.00
28683;BME280;15862;43.062;25.626;2022-11-21T12:39:47;98991.97;;;13.93;100.00
28683;BME280;15862;43.062;25.626;2022-11-21T12:42:42;99002.28;;;13.77;100.00
28683;BME280;15862;43.062;25.626;2022-11-21T12:45:56;98997.50;;;13.65;100.00
28683;BME280;15862;43.062;25.626;2022-11-21T12:48:39;99001.84;;;13.56;100.00
28683;BME280;15862;43.062;25.626;2022-11-21T12:51:40;99017.97;;;13.42;100.00
28683;BME280;15862;43.062;25.626;2022-11-21T13:05:27;99030.72;;;12.93;100.00
28683;BME280;15862;43.062;25.626;2022-11-21T13:08:02;98987.34;;;12.68;100.00
28683;BME280;15862;43.062;25.626;2022-11-21T13:10:29;99028.28;;;12.92;100.00
28683;BME280;15862;43.062;25.626;2022-11-21T13:13:08;99021.13;;;12.94;100.00
28683;BME280;15862;43.062;25.626;2022-11-21T13:15:53;99019.44;;;12.85;100.00
28683;BME280;15862;43.062;25.626;2022-11-21T13:18:34;99020.47;;;12.74;100.00
28683;BME280;15862;43.062;25.626;2022-11-21T13:21:04;99027.25;;;12.58;100.00
28683;BME280;15862;43.062;25.626;2022-11-21T13:23:40;99024.88;;;12.47;100.00
28683;BME280;15862;43.062;25.626;2022-11-21T13:29:23;99034.06;;;12.15;100.00
28683;BME280;15862;43.062;25.626;2022-11-21T13:31:42;99053.59;;;12.00;100.00
28683;BME280;15862;43.062;25.626;2022-11-21T13:36:52;99067.53;;;11.89;100.00
28683;BME280;15862;43.062;25.626;2022-11-21T13:46:58;99053.44;;;11.46;100.00
28683;BME280;15862;43.062;25.626;2022-11-21T13:49:32;99065.72;;;11.53;100.00
28683;BME280;15862;43.062;25.626;2022-11-21T13:52:07;99062.44;;;11.42;100.00
28683;BME280;15862;43.062;25.626;2022-11-21T14:08:22;99096.22;;;11.41;100.00
28683;BME280;15862;43.062;25.626;2022-11-21T14:10:53;99114.03;;;11.43;100.00
28683;BME280;15862;43.062;25.626;2022-11-21T14:18:44;99104.75;;;11.50;100.00
28683;BME280;15862;43.062;25.626;2022-11-21T14:21:27;99101.78;;;11.55;100.00
28683;BME280;15862;43.062;25.626;2022-11-21T14:24:00;99091.44;;;11.45;100.00
28683;BME280;15862;43.062;25.626;2022-11-21T14:26:33;99118.09;;;11.46;100.00
28683;BME280;15862;43.062;25.626;2022-11-21T14:29:38;99114.56;;;11.38;100.00
28683;BME280;15862;43.062;25.626;2022-11-21T14:32:04;99119.88;;;11.27;100.00
28683;BME280;15862;43.062;25.626;2022-11-21T14:34:31;99131.69;;;11.20;100.00
28683;BME280;15862;43.062;25.626;2022-11-21T14:37:03;99131.59;;;11.31;100.00
28683;BME280;15862;43.062;25.626;2022-11-21T14:39:32;99140.84;;;11.33;100.00
28683;BME280;15862;43.062;25.626;2022-11-21T14:42:00;99146.41;;;11.29;100.00
28683;BME280;15862;43.062;25.626;2022-11-21T14:44:27;99150.88;;;11.27;100.00
28683;BME280;15862;43.062;25.626;2022-11-21T14:47:22;99161.91;;;11.19;100.00
28683;BME280;15862;43.062;25.626;2022-11-21T14:49:52;99135.47;;;10.78;100.00